Terminal Aerodrome Forecast
Issued by NWS Lake Charles, LA

Home | Current Version | Previous Version | Text Only | Print | Product List | Glossary On
Versions: 1 2 3 4 5 6 7 8 9 10 11 12 13 14 15 16 17
000
FTUS44 KLCH 271124
TAFLFT
TAF
KLFT 271124Z 2712/2812 06008KT P6SM VCSH SCT120 OVC250
     FM271500 06008KT P6SM VCTS SCT040CB
     FM280300 VRB03KT P6SM BKN250=

USA.gov is the U.S. government's official web portal to all federal, state and local government web resources and services.